Time;durP1;ratioP1;P1;durP2;ratioP2;P2;SDS_P1;SDS_P2;PMS_P1;PMS_P2;Temp;Humidity;BMP_temperature;BMP_pressure;BME280_temperature;BME280_humidity;BME280_pressure;Samples;Min_cycle;Max_cycle;Signal;HPM_P1;HPM_P2
2022/07/12 05:33:09;;;;;;;;;;;;;;;22.82;50.09;97411.69;4259294;27;10476;-82
2022/07/12 05:35:12;;;;;;;;;;;;;;;23.09;49.25;97404.38;4249104;27;5710;-81
2022/07/12 05:37:15;;;;;;;;;;;;;;;23.33;49.05;97402.16;4243522;27;5876;-81
2022/07/12 05:39:17;;;;;;;;;;;;;;;23.54;48.65;97408.47;4230689;28;5870;-81
2022/07/12 05:41:21;;;;;;;;;;;;;;;23.73;48.49;97401.59;4231149;28;5658;-81
2022/07/12 05:43:23;;;;;;;;;;;;;;;23.96;47.98;97399.53;4227478;28;5791;-81
2022/07/12 05:45:26;;;;;;;;;;;;;;;24.22;48.09;97403.94;4232037;28;5659;-81
2022/07/12 05:47:29;;;;;;;;;;;;;;;24.55;47.17;97410.00;4230212;28;5691;-81
2022/07/12 05:49:41;;;;;;;;;;;;;;;24.85;47.13;97418.16;4244083;27;5682;-80
2022/07/12 05:54:04;;;;;;;;;;;;;;;25.31;46.42;97417.38;4224373;28;5807;-76
2022/07/12 05:56:07;;;;;;;;;;;;;;;25.46;46.24;97433.56;4213633;28;5699;-77
2022/07/12 05:58:10;;;;;;;;;;;;;;;25.63;45.83;97433.28;4214472;28;5845;-77
2022/07/12 06:00:13;;;;;;;;;;;;;;;25.79;46.03;97434.88;4215254;28;5849;-77
2022/07/12 06:02:16;;;;;;;;;;;;;;;25.93;45.49;97430.50;4214828;28;5672;-78
2022/07/12 06:04:19;;;;;;;;;;;;;;;26.02;45.57;97425.34;4213528;28;5696;-77
2022/07/12 06:06:24;;;;;;;;;;;;;;;26.12;45.41;97425.28;4213713;28;6459;-77
2022/07/12 06:08:27;;;;;;;;;;;;;;;26.17;45.10;97438.03;4214730;28;5700;-78
2022/07/12 06:10:30;;;;;;;;;;;;;;;26.29;45.21;97430.38;4214954;28;5728;-78
2022/07/12 06:12:33;;;;;;;;;;;;;;;26.36;44.87;97436.28;4214750;28;5869;-78
2022/07/12 06:14:36;;;;;;;;;;;;;;;26.41;44.80;97436.31;4214811;28;5703;-78
2022/07/12 06:16:39;;;;;;;;;;;;;;;26.42;44.70;97429.00;4214811;28;5692;-78
2022/07/12 06:18:42;;;;;;;;;;;;;;;26.48;44.24;97436.00;4214768;28;5764;-78
2022/07/12 06:20:45;;;;;;;;;;;;;;;26.52;44.50;97435.16;4214642;28;6003;-78
2022/07/12 06:22:50;;;;;;;;;;;;;;;26.59;44.51;97435.66;4212441;28;5806;-78
2022/07/12 06:24:53;;;;;;;;;;;;;;;26.62;44.03;97424.25;4215051;28;5684;-78
2022/07/12 06:26:56;;;;;;;;;;;;;;;26.67;43.99;97426.94;4214817;28;5767;-78
2022/07/12 06:28:59;;;;;;;;;;;;;;;26.74;43.96;97425.81;4214489;28;5810;-77
2022/07/12 06:31:02;;;;;;;;;;;;;;;26.75;43.66;97422.00;4214429;28;5811;-78
2022/07/12 06:33:05;;;;;;;;;;;;;;;26.74;44.02;97414.97;4223399;28;5640;-78
2022/07/12 06:35:08;;;;;;;;;;;;;;;26.74;43.75;97420.41;4219893;28;5061;-79
2022/07/12 06:37:12;;;;;;;;;;;;;;;26.70;43.74;97426.34;4219771;28;5675;-78
2022/07/12 06:39:17;;;;;;;;;;;;;;;26.68;43.88;97425.84;4219000;28;5622;-78
2022/07/12 06:41:20;;;;;;;;;;;;;;;26.65;43.97;97420.97;4220110;28;5671;-79
2022/07/12 06:43:23;;;;;;;;;;;;;;;26.60;43.76;97426.41;4218801;28;5718;-79
2022/07/12 06:45:26;;;;;;;;;;;;;;;26.57;44.09;97428.88;4218531;28;5643;-79
2022/07/12 06:47:29;;;;;;;;;;;;;;;26.59;43.96;97435.66;4219855;28;5667;-78
2022/07/12 06:49:32;;;;;;;;;;;;;;;26.60;43.92;97431.84;4219803;28;5733;-78
2022/07/12 06:51:38;;;;;;;;;;;;;;;26.62;43.67;97445.97;4219531;27;5691;-77
2022/07/12 06:53:41;;;;;;;;;;;;;;;26.57;43.74;97431.59;4234072;27;5814;-78
2022/07/12 06:55:46;;;;;;;;;;;;;;;26.55;43.70;97434.59;4225093;28;5809;-78
2022/07/12 06:57:48;;;;;;;;;;;;;;;26.54;43.56;97438.41;4234246;27;5171;-78
2022/07/12 06:59:51;;;;;;;;;;;;;;;26.57;43.56;97437.84;4225158;28;5633;-78
2022/07/12 07:01:55;;;;;;;;;;;;;;;26.62;43.53;97445.97;4219730;28;5662;-78
2022/07/12 07:03:58;;;;;;;;;;;;;;;26.62;43.84;97445.16;4223445;28;5091;-78
2022/07/12 07:06:01;;;;;;;;;;;;;;;26.56;43.50;97447.06;4219541;28;6338;-79
2022/07/12 07:08:06;;;;;;;;;;;;;;;26.47;43.61;97448.72;4225518;28;6557;-78
2022/07/12 07:10:12;;;;;;;;;;;;;;;26.40;43.75;97453.66;4224882;28;5068;-79
2022/07/12 07:12:17;;;;;;;;;;;;;;;26.37;44.18;97449.59;4236529;28;5687;-79
2022/07/12 07:14:20;;;;;;;;;;;;;;;26.35;44.14;97456.34;4230236;28;5674;-78
2022/07/12 07:16:24;;;;;;;;;;;;;;;26.30;44.04;97451.78;4219704;28;6391;-79
2022/07/12 07:18:27;;;;;;;;;;;;;;;26.24;44.32;97449.34;4219360;28;5782;-78
2022/07/12 07:20:30;;;;;;;;;;;;;;;26.19;44.47;97446.69;4219044;28;5678;-78
2022/07/12 07:22:34;;;;;;;;;;;;;;;26.11;44.29;97450.78;4222475;27;5793;-78
2022/07/12 07:24:37;;;;;;;;;;;;;;;26.09;43.99;97458.38;4222740;28;5105;-78
2022/07/12 07:26:42;;;;;;;;;;;;;;;26.04;44.16;97456.47;4219278;28;5761;-78
2022/07/12 07:31:09;;;;;;;;;;;;;;;25.96;44.12;97457.06;4219146;28;5674;-78
2022/07/12 07:33:12;;;;;;;;;;;;;;;25.92;44.37;97450.56;4218552;28;6698;-79
2022/07/12 07:35:15;;;;;;;;;;;;;;;25.88;44.33;97457.63;4219125;28;5666;-79
2022/07/12 07:37:18;;;;;;;;;;;;;;;25.84;44.54;97461.97;4219019;28;5667;-79
2022/07/12 07:39:21;;;;;;;;;;;;;;;25.80;44.34;97456.28;4219257;28;5860;-79
2022/07/12 07:41:24;;;;;;;;;;;;;;;25.76;44.33;97457.91;4225066;28;5748;-79
2022/07/12 07:43:27;;;;;;;;;;;;;;;25.75;44.62;97458.19;4224436;28;5753;-79
2022/07/12 07:45:31;;;;;;;;;;;;;;;25.73;44.23;97458.47;4225066;28;6219;-79
2022/07/12 07:47:44;;;;;;;;;;;;;;;25.70;44.30;97456.28;4232204;27;5764;-79
2022/07/12 07:50:07;;;;;;;;;;;;;;;25.65;44.51;97456.28;4220605;28;6619;-79
2022/07/12 07:52:10;;;;;;;;;;;;;;;25.64;44.45;97456.56;4232664;28;5751;-79
2022/07/12 07:54:20;;;;;;;;;;;;;;;25.61;44.42;97452.50;4232791;28;5821;-79
2022/07/12 07:56:25;;;;;;;;;;;;;;;25.55;44.88;97453.59;4215908;28;5760;-79
2022/07/12 07:58:29;;;;;;;;;;;;;;;25.51;44.69;97452.53;4216099;28;5773;-78
2022/07/12 08:00:33;;;;;;;;;;;;;;;25.48;44.68;97453.91;4215538;28;6556;-78
2022/07/12 08:02:36;;;;;;;;;;;;;;;25.46;44.66;97450.63;4216476;28;5785;-78
2022/07/12 08:04:40;;;;;;;;;;;;;;;25.48;44.91;97458.47;4232598;28;5737;-78
2022/07/12 08:06:43;;;;;;;;;;;;;;;25.47;44.93;97465.78;4232409;28;5736;-78
2022/07/12 08:08:46;;;;;;;;;;;;;;;25.47;44.75;97463.06;4232435;28;5665;-78
2022/07/12 08:11:11;;;;;;;;;;;;;;;25.47;44.65;97460.38;4232777;28;5736;-78
2022/07/12 08:13:14;;;;;;;;;;;;;;;25.47;44.57;97465.78;4231163;28;5103;-78
2022/07/12 08:15:17;;;;;;;;;;;;;;;25.50;44.98;97464.44;4232457;27;5728;-78
2022/07/12 08:17:22;;;;;;;;;;;;;;;25.51;44.66;97466.06;4232220;27;5747;-78
2022/07/12 08:19:25;;;;;;;;;;;;;;;25.48;44.87;97458.47;4232656;27;6422;-78
2022/07/12 08:21:28;;;;;;;;;;;;;;;25.46;44.69;97460.63;4232339;28;5870;-78
2022/07/12 08:23:31;;;;;;;;;;;;;;;25.46;44.85;97450.63;4220730;28;5773;-78
2022/07/12 08:25:34;;;;;;;;;;;;;;;25.44;44.49;97458.22;4226576;28;5807;-78
2022/07/12 08:27:39;;;;;;;;;;;;;;;25.42;44.93;97457.69;4231908;28;5776;-78
2022/07/12 08:29:42;;;;;;;;;;;;;;;25.43;44.38;97453.88;4230497;28;5880;-78
2022/07/12 08:31:45;;;;;;;;;;;;;;;25.44;44.89;97458.22;4230393;28;5714;-79
2022/07/12 08:33:50;;;;;;;;;;;;;;;25.44;45.03;97462.81;4241443;27;5745;-78
2022/07/12 08:35:53;;;;;;;;;;;;;;;25.42;44.84;97459.56;4248951;27;5723;-77
2022/07/12 08:37:56;;;;;;;;;;;;;;;25.43;45.18;97444.94;4248964;27;5759;-77
2022/07/12 08:39:59;;;;;;;;;;;;;;;25.42;45.27;97457.69;4240579;27;5756;-78
2022/07/12 08:42:02;;;;;;;;;;;;;;;25.39;44.90;97454.72;4230419;28;5715;-78
2022/07/12 08:44:05;;;;;;;;;;;;;;;25.39;45.59;97460.94;4231849;27;5794;-77
2022/07/12 08:46:10;;;;;;;;;;;;;;;25.35;45.79;97457.13;4231626;28;6472;-77
2022/07/12 08:48:13;;;;;;;;;;;;;;;25.38;45.42;97467.44;4230695;28;6092;-77
2022/07/12 08:50:18;;;;;;;;;;;;;;;25.38;45.23;97459.31;4231364;28;5803;-78
2022/07/12 08:52:28;;;;;;;;;;;;;;;25.41;45.49;97457.94;4232001;28;5751;-77
2022/07/12 08:54:40;;;;;;;;;;;;;;;25.39;45.77;97458.22;4232141;28;5773;-78
2022/07/12 08:56:44;;;;;;;;;;;;;;;25.39;45.50;97460.94;4227314;28;5780;-78
2022/07/12 08:58:52;;;;;;;;;;;;;;;25.39;45.46;97454.72;4213430;28;5827;-78
2022/07/12 09:00:55;;;;;;;;;;;;;;;25.38;45.35;97463.91;4214978;28;5813;-78
2022/07/12 09:03:00;;;;;;;;;;;;;;;25.37;45.54;97455.00;4213565;28;5734;-78
2022/07/12 09:05:10;;;;;;;;;;;;;;;25.41;45.75;97455.25;4213450;28;5734;-78
2022/07/12 09:07:18;;;;;;;;;;;;;;;25.41;45.86;97453.34;4213402;28;5738;-77
2022/07/12 09:09:29;;;;;;;;;;;;;;;25.44;45.44;97457.41;4214865;28;7678;-78
2022/07/12 09:11:32;;;;;;;;;;;;;;;25.43;45.46;97456.59;4215141;28;6534;-79
2022/07/12 09:13:58;;;;;;;;;;;;;;;25.42;45.45;97460.38;4214880;28;5769;-78
2022/07/12 09:16:13;;;;;;;;;;;;;;;25.44;45.77;97462.81;4212270;28;6450;-78
2022/07/12 09:18:18;;;;;;;;;;;;;;;25.42;45.63;97457.69;4215010;28;5764;-79
2022/07/12 09:20:21;;;;;;;;;;;;;;;25.42;45.82;97464.97;4214859;28;5765;-78
2022/07/12 09:22:25;;;;;;;;;;;;;;;25.44;45.60;97455.50;4216313;28;5769;-78
2022/07/12 09:24:29;;;;;;;;;;;;;;;25.47;45.31;97457.66;4231438;28;5755;-79
2022/07/12 09:26:33;;;;;;;;;;;;;;;25.51;45.58;97456.03;4231792;28;5784;-78
2022/07/12 09:28:37;;;;;;;;;;;;;;;25.54;45.18;97463.63;4231739;28;5741;-79
2022/07/12 09:30:49;;;;;;;;;;;;;;;25.57;45.30;97456.03;4231609;27;5736;-78
2022/07/12 09:37:40;;;;;;;;;;;;;;;25.59;45.15;97449.25;4231608;28;5764;-78
2022/07/12 09:39:44;;;;;;;;;;;;;;;25.61;45.12;97451.72;4229560;28;5740;-78
2022/07/12 09:41:47;;;;;;;;;;;;;;;25.59;45.44;97448.44;4231612;28;5740;-78
2022/07/12 09:43:51;;;;;;;;;;;;;;;25.59;45.22;97448.44;4231670;28;5804;-78
2022/07/12 09:45:55;;;;;;;;;;;;;;;25.63;44.98;97446.81;4229513;28;5751;-78
2022/07/12 09:48:00;;;;;;;;;;;;;;;25.64;45.21;97451.16;4229260;28;5869;-78
2022/07/12 09:50:06;;;;;;;;;;;;;;;25.63;45.13;97447.63;4214475;28;5789;-79
2022/07/12 09:52:13;;;;;;;;;;;;;;;25.65;44.86;97441.94;4217831;28;5767;-78
2022/07/12 09:54:25;;;;;;;;;;;;;;;25.66;45.24;97443.56;4231780;28;5803;-78
2022/07/12 09:56:36;;;;;;;;;;;;;;;25.65;44.67;97445.47;4231735;28;5860;-79
2022/07/12 09:58:41;;;;;;;;;;;;;;;25.71;44.91;97451.69;4225723;28;6460;-78
2022/07/12 10:00:44;;;;;;;;;;;;;;;25.72;45.06;97447.94;4221393;28;5752;-78
2022/07/12 10:02:51;;;;;;;;;;;;;;;25.75;44.80;97447.38;4231669;28;5802;-78
2022/07/12 10:04:55;;;;;;;;;;;;;;;25.78;44.63;97454.94;4222263;28;5689;-79
2022/07/12 10:06:58;;;;;;;;;;;;;;;25.78;44.92;97453.03;4214987;28;5773;-79
2022/07/12 10:09:02;;;;;;;;;;;;;;;25.77;44.96;97453.31;4217219;28;5737;-79
2022/07/12 10:11:07;;;;;;;;;;;;;;;25.77;44.80;97454.13;4218105;28;5769;-79
2022/07/12 10:13:10;;;;;;;;;;;;;;;25.75;44.51;97452.78;4218669;28;5722;-78
2022/07/12 10:15:16;;;;;;;;;;;;;;;25.80;44.86;97452.75;4220407;28;6486;-78
2022/07/12 10:17:23;;;;;;;;;;;;;;;25.81;44.52;97457.09;4230877;28;5784;-78
2022/07/12 10:19:27;;;;;;;;;;;;;;;25.83;44.56;97454.94;4227157;28;5767;-78
2022/07/12 10:21:30;;;;;;;;;;;;;;;25.88;44.50;97456.81;4236162;28;5751;-79
2022/07/12 10:23:37;;;;;;;;;;;;;;;25.90;44.52;97447.31;4228916;28;5095;-78
2022/07/12 10:25:40;;;;;;;;;;;;;;;25.92;44.49;97453.25;4236769;28;5733;-78
2022/07/12 10:27:49;;;;;;;;;;;;;;;25.96;44.67;97443.50;4237119;28;5764;-76
2022/07/12 10:29:53;;;;;;;;;;;;;;;25.97;44.78;97447.84;4236682;28;5870;-75
2022/07/12 10:31:57;;;;;;;;;;;;;;;26.00;44.31;97447.28;4244771;27;5715;-76
2022/07/12 10:34:10;;;;;;;;;;;;;;;26.02;44.46;97447.81;4253666;27;5723;-77
2022/07/12 10:36:13;;;;;;;;;;;;;;;26.05;44.65;97447.28;4251334;27;5771;-77
2022/07/12 10:38:21;;;;;;;;;;;;;;;26.06;44.43;97443.47;4252762;27;5727;-77
2022/07/12 10:40:24;;;;;;;;;;;;;;;26.09;44.29;97448.34;4251602;27;5700;-77
2022/07/12 10:42:27;;;;;;;;;;;;;;;26.06;44.59;97446.19;4240720;27;6264;-77
2022/07/12 10:44:36;;;;;;;;;;;;;;;26.08;44.47;97446.72;4225935;28;5711;-76
2022/07/12 10:46:59;;;;;;;;;;;;;;;26.10;44.37;97444.53;4233693;28;6445;-75
2022/07/12 10:49:25;;;;;;;;;;;;;;;26.12;44.09;97441.56;4234511;28;5752;-76
2022/07/12 10:51:28;;;;;;;;;;;;;;;26.10;43.98;97439.13;4236586;28;5784;-76
2022/07/12 10:53:33;;;;;;;;;;;;;;;26.12;43.99;97442.34;4234494;28;5700;-78
2022/07/12 10:55:37;;;;;;;;;;;;;;;26.18;43.98;97442.34;4237392;28;5747;-78
2022/07/12 10:57:43;;;;;;;;;;;;;;;26.23;43.80;97439.59;4245267;27;5726;-78
2022/07/12 10:59:53;;;;;;;;;;;;;;;26.23;43.67;97442.31;4226942;27;5772;-77
2022/07/12 11:01:57;;;;;;;;;;;;;;;26.23;43.83;97439.59;4217309;28;5789;-78
2022/07/12 11:04:07;;;;;;;;;;;;;;;26.26;43.71;97441.75;4224624;28;5875;-78
2022/07/12 11:06:12;;;;;;;;;;;;;;;26.29;43.68;97436.63;4233268;28;5782;-78
2022/07/12 11:08:15;;;;;;;;;;;;;;;26.31;43.61;97439.03;4233596;28;5759;-78
2022/07/12 11:10:19;;;;;;;;;;;;;;;26.31;43.56;97433.63;4221830;28;5779;-77
2022/07/12 11:12:29;;;;;;;;;;;;;;;26.33;43.60;97434.16;4230436;28;5734;-78
2022/07/12 11:14:33;;;;;;;;;;;;;;;26.34;43.41;97438.47;4233659;27;5735;-78
2022/07/12 11:16:47;;;;;;;;;;;;;;;26.36;43.63;97425.44;4233721;28;6321;-78
2022/07/12 11:18:50;;;;;;;;;;;;;;;26.36;43.47;97431.72;4221468;28;5889;-78
2022/07/12 11:20:56;;;;;;;;;;;;;;;26.38;43.62;97436.84;4219586;28;5752;-77
2022/07/12 11:22:59;;;;;;;;;;;;;;;26.38;43.22;97432.25;4221495;28;5757;-77
2022/07/12 11:25:04;;;;;;;;;;;;;;;26.43;43.18;97433.31;4225072;28;5781;-77
2022/07/12 11:27:14;;;;;;;;;;;;;;;26.45;43.06;97434.66;4225076;28;5759;-78
2022/07/12 11:29:18;;;;;;;;;;;;;;;26.49;43.03;97438.41;4216381;28;5757;-77
2022/07/12 11:31:21;;;;;;;;;;;;;;;26.50;43.07;97442.75;4219412;28;5752;-78
2022/07/12 11:33:27;;;;;;;;;;;;;;;26.51;43.22;97438.16;4215889;28;5777;-78
2022/07/12 11:35:30;;;;;;;;;;;;;;;26.53;43.13;97435.97;4217765;28;5813;-77
2022/07/12 11:37:33;;;;;;;;;;;;;;;26.54;42.98;97432.16;4216289;28;5722;-77
2022/07/12 11:39:38;;;;;;;;;;;;;;;26.55;42.82;97426.47;4223789;28;5825;-77
2022/07/12 11:41:41;;;;;;;;;;;;;;;26.57;42.85;97429.69;4230695;28;5838;-77
2022/07/12 11:43:44;;;;;;;;;;;;;;;26.61;42.60;97438.88;4231752;28;5739;-77
2022/07/12 11:45:47;;;;;;;;;;;;;;;26.63;42.49;97431.31;4233041;28;5752;-78
2022/07/12 11:47:50;;;;;;;;;;;;;;;26.65;42.65;97423.69;4233119;28;5744;-77
2022/07/12 11:49:56;;;;;;;;;;;;;;;26.68;42.34;97411.47;4232865;28;5763;-77
2022/07/12 11:51:59;;;;;;;;;;;;;;;26.70;42.63;97414.69;4231414;28;5775;-77
2022/07/12 11:54:02;;;;;;;;;;;;;;;26.70;42.39;97415.50;4232859;27;5759;-77
2022/07/12 11:56:07;;;;;;;;;;;;;;;26.69;42.53;97413.91;4232973;28;5743;-77
2022/07/12 11:58:10;;;;;;;;;;;;;;;26.73;42.50;97397.06;4245073;27;5710;-77
2022/07/12 12:00:16;;;;;;;;;;;;;;;26.74;42.42;97410.34;4250126;27;5828;-78
2022/07/12 12:02:19;;;;;;;;;;;;;;;26.76;42.24;97407.34;4249910;27;5815;-77
2022/07/12 12:04:22;;;;;;;;;;;;;;;26.76;42.27;97412.78;4250118;27;5861;-77
2022/07/12 12:06:27;;;;;;;;;;;;;;;26.77;42.09;97404.34;4250044;27;5718;-78
2022/07/12 12:08:30;;;;;;;;;;;;;;;26.76;42.41;97400.03;4249639;27;5759;-78
2022/07/12 12:10:33;;;;;;;;;;;;;;;26.79;41.97;97395.94;4249510;27;5811;-77
2022/07/12 12:12:37;;;;;;;;;;;;;;;26.83;42.17;97397.78;4249784;27;5722;-78
2022/07/12 12:14:41;;;;;;;;;;;;;;;26.84;42.18;97390.47;4249893;27;5711;-78
2022/07/12 12:16:44;;;;;;;;;;;;;;;26.86;42.10;97391.81;4248146;27;5711;-77
2022/07/12 12:18:47;;;;;;;;;;;;;;;26.91;41.73;97394.47;4249683;27;5734;-78
2022/07/12 12:20:58;;;;;;;;;;;;;;;26.92;42.03;97395.28;4249376;27;5766;-78
2022/07/12 12:23:04;;;;;;;;;;;;;;;26.91;41.98;97391.75;4249253;27;5719;-77
2022/07/12 12:25:12;;;;;;;;;;;;;;;26.91;41.86;97382.81;4244805;27;5756;-78
2022/07/12 12:27:25;;;;;;;;;;;;;;;26.91;41.83;97383.63;4232685;28;5680;-78
2022/07/12 12:29:41;;;;;;;;;;;;;;;26.90;41.67;97387.44;4232397;27;5727;-78
2022/07/12 12:31:57;;;;;;;;;;;;;;;26.93;41.60;97380.63;4231648;28;5736;-78
2022/07/12 12:34:00;;;;;;;;;;;;;;;26.97;41.47;97382.50;4230951;28;6049;-78
2022/07/12 12:36:21;;;;;;;;;;;;;;;27.01;41.50;97377.31;4232567;28;5654;-78
2022/07/12 12:38:30;;;;;;;;;;;;;;;27.04;41.33;97376.75;4232270;28;5736;-77
2022/07/12 12:40:34;;;;;;;;;;;;;;;27.04;41.52;97381.38;4232428;28;5755;-78
2022/07/12 12:42:37;;;;;;;;;;;;;;;27.03;41.42;97369.72;4232175;28;5736;-77
2022/07/12 12:44:40;;;;;;;;;;;;;;;27.02;41.49;97359.97;4232337;27;6455;-78
2022/07/12 12:46:51;;;;;;;;;;;;;;;27.04;41.46;97368.63;4232045;28;5772;-77
2022/07/12 12:48:54;;;;;;;;;;;;;;;27.05;41.21;97372.94;4224590;28;5768;-78
2022/07/12 12:51:04;;;;;;;;;;;;;;;27.04;41.33;97374.03;4231914;28;5666;-77
2022/07/12 12:53:09;;;;;;;;;;;;;;;27.05;41.42;97372.94;4230582;28;5859;-77
2022/07/12 12:55:13;;;;;;;;;;;;;;;27.05;41.16;97370.25;4230589;27;5765;-78
2022/07/12 12:57:16;;;;;;;;;;;;;;;27.08;41.26;97372.41;4230308;28;5740;-78
2022/07/12 12:59:19;;;;;;;;;;;;;;;27.08;41.02;97377.81;4231591;28;7237;-78
2022/07/12 13:01:22;;;;;;;;;;;;;;;27.08;40.97;97360.75;4232240;27;5747;-78
2022/07/12 13:03:26;;;;;;;;;;;;;;;27.12;40.91;97378.88;4232321;28;5773;-77
2022/07/12 13:05:29;;;;;;;;;;;;;;;27.14;40.76;97382.09;4223105;28;5757;-77
2022/07/12 13:07:32;;;;;;;;;;;;;;;27.13;40.71;97375.06;4229925;28;5771;-76
2022/07/12 13:09:35;;;;;;;;;;;;;;;27.15;40.78;97378.28;4221452;28;5780;-77
2022/07/12 13:11:40;;;;;;;;;;;;;;;27.13;40.44;97379.69;4214469;28;5132;-77
2022/07/12 13:13:43;;;;;;;;;;;;;;;27.15;40.49;97380.19;4215012;28;5772;-78
2022/07/12 13:15:47;;;;;;;;;;;;;;;27.15;40.46;97372.88;4215105;28;5797;-77
2022/07/12 13:17:50;;;;;;;;;;;;;;;27.16;40.47;97373.66;4214857;28;5781;-77
2022/07/12 13:19:53;;;;;;;;;;;;;;;27.17;40.65;97370.66;4214908;28;6486;-77
2022/07/12 13:21:57;;;;;;;;;;;;;;;27.17;40.34;97384.22;4223959;28;5752;-77
2022/07/12 13:24:01;;;;;;;;;;;;;;;27.16;40.38;97374.47;4231382;28;5748;-77
2022/07/12 13:26:03;;;;;;;;;;;;;;;27.17;40.44;97364.44;4228415;28;5764;-77
2022/07/12 13:28:11;;;;;;;;;;;;;;;27.18;40.51;97374.19;4228354;27;5717;-77
2022/07/12 13:30:16;;;;;;;;;;;;;;;27.16;40.49;97358.19;4214902;28;5834;-77
2022/07/12 13:32:19;;;;;;;;;;;;;;;27.17;40.25;97369.84;4221670;28;5874;-77
2022/07/12 13:34:22;;;;;;;;;;;;;;;27.17;40.39;97364.44;4226985;28;5876;-77
2022/07/12 13:36:25;;;;;;;;;;;;;;;27.18;40.10;97356.03;4224146;28;5843;-77
2022/07/12 13:38:28;;;;;;;;;;;;;;;27.19;40.07;97357.66;4231467;28;5748;-77
2022/07/12 13:40:31;;;;;;;;;;;;;;;27.17;40.24;97359.81;4226975;28;5791;-77
2022/07/12 13:42:34;;;;;;;;;;;;;;;27.18;40.24;97357.91;4216011;28;5846;-77
2022/07/12 13:44:38;;;;;;;;;;;;;;;27.24;39.89;97362.19;4235133;28;5724;-76
2022/07/12 13:46:41;;;;;;;;;;;;;;;27.23;40.11;97360.59;4220280;28;5769;-77
2022/07/12 13:48:45;;;;;;;;;;;;;;;27.22;39.86;97356.25;4218036;28;5765;-77
2022/07/12 13:50:48;;;;;;;;;;;;;;;27.29;40.00;97356.72;4217725;28;5757;-77
2022/07/12 13:53:11;;;;;;;;;;;;;;;27.28;39.69;97352.38;4217909;28;5815;-77
2022/07/12 13:55:16;;;;;;;;;;;;;;;27.25;39.75;97348.34;4218188;28;5765;-77
2022/07/12 13:57:19;;;;;;;;;;;;;;;27.22;39.91;97346.22;4218343;28;5784;-77
2022/07/12 13:59:22;;;;;;;;;;;;;;;27.20;39.54;97344.88;4216360;28;5773;-77
2022/07/12 14:01:27;;;;;;;;;;;;;;;27.22;39.93;97345.41;4217787;28;5802;-77
2022/07/12 14:03:30;;;;;;;;;;;;;;;27.24;39.53;97345.91;4216704;28;5235;-77
2022/07/12 14:05:33;;;;;;;;;;;;;;;27.26;39.64;97346.44;4217930;28;5745;-78
2022/07/12 14:07:37;;;;;;;;;;;;;;;27.24;39.43;97343.19;4217567;28;5065;-77
2022/07/12 14:09:41;;;;;;;;;;;;;;;27.24;39.32;97341.28;4216428;28;5834;-78
2022/07/12 14:11:44;;;;;;;;;;;;;;;27.28;39.23;97339.63;4217770;28;5767;-77
2022/07/12 14:13:46;;;;;;;;;;;;;;;27.33;39.31;97343.38;4229902;27;5744;-77
2022/07/12 14:15:50;;;;;;;;;;;;;;;27.39;39.14;97344.94;4221945;27;5786;-77
2022/07/12 14:17:54;;;;;;;;;;;;;;;27.43;38.90;97338.66;4223957;28;5748;-77
2022/07/12 14:19:57;;;;;;;;;;;;;;;27.44;38.74;97342.19;4234164;28;5745;-77
2022/07/12 14:22:00;;;;;;;;;;;;;;;27.38;38.69;97337.91;4249301;27;6035;-77
2022/07/12 14:24:03;;;;;;;;;;;;;;;27.37;38.95;97336.28;4234094;27;5794;-77
2022/07/12 14:26:06;;;;;;;;;;;;;;;27.36;38.84;97338.19;4231029;27;5821;-78
2022/07/12 14:28:09;;;;;;;;;;;;;;;27.38;38.78;97340.59;4241626;27;5710;-77
2022/07/12 14:30:14;;;;;;;;;;;;;;;27.39;38.57;97328.66;4238595;27;5870;-76
2022/07/12 14:32:17;;;;;;;;;;;;;;;27.38;38.31;97324.31;4246777;27;5743;-75
2022/07/12 14:34:21;;;;;;;;;;;;;;;27.38;38.35;97332.47;4249803;27;5835;-76
2022/07/12 14:36:24;;;;;;;;;;;;;;;27.37;38.21;97330.84;4235007;27;6494;-77
2022/07/12 14:38:27;;;;;;;;;;;;;;;27.35;38.39;97327.63;4229291;27;5744;-77
2022/07/12 14:40:30;;;;;;;;;;;;;;;27.32;38.21;97328.19;4232164;27;5827;-77
2022/07/12 14:42:33;;;;;;;;;;;;;;;27.31;38.26;97326.59;4235223;27;5773;-76
2022/07/12 14:44:36;;;;;;;;;;;;;;;27.31;38.35;97323.88;4234608;27;5756;-76
2022/07/12 14:46:39;;;;;;;;;;;;;;;27.31;38.31;97324.69;4237737;27;5738;-76
2022/07/12 14:48:44;;;;;;;;;;;;;;;27.33;38.16;97316.25;4233949;27;6503;-76
2022/07/12 14:50:49;;;;;;;;;;;;;;;27.33;38.03;97319.78;4234042;27;5938;-77
2022/07/12 14:52:55;;;;;;;;;;;;;;;27.31;38.21;97321.97;4220648;28;5832;-76
2022/07/12 14:54:59;;;;;;;;;;;;;;;27.30;37.91;97316.84;4219583;27;5756;-77
2022/07/12 14:57:02;;;;;;;;;;;;;;;27.29;38.09;97313.28;4224360;27;5696;-77
2022/07/12 14:59:05;;;;;;;;;;;;;;;27.32;38.03;97312.72;4232338;27;5877;-77
2022/07/12 15:01:08;;;;;;;;;;;;;;;27.35;37.61;97317.56;4221265;27;5769;-76
2022/07/12 15:03:12;;;;;;;;;;;;;;;27.37;37.55;97317.28;4229601;27;5839;-77
2022/07/12 15:05:15;;;;;;;;;;;;;;;27.36;37.58;97312.94;4225164;28;5790;-77
2022/07/12 15:07:19;;;;;;;;;;;;;;;27.33;37.63;97316.25;4216919;28;5816;-77
2022/07/12 15:09:22;;;;;;;;;;;;;;;27.32;37.40;97314.63;4225398;27;5843;-77
2022/07/12 15:11:26;;;;;;;;;;;;;;;27.32;37.36;97304.59;4228241;28;5752;-77
2022/07/12 15:13:30;;;;;;;;;;;;;;;27.31;37.27;97318.44;4232942;27;5684;-77
2022/07/12 15:15:33;;;;;;;;;;;;;;;27.30;37.17;97314.13;4217453;28;5821;-77
2022/07/12 15:17:36;;;;;;;;;;;;;;;27.30;37.12;97305.97;4221774;27;5872;-77
2022/07/12 15:19:39;;;;;;;;;;;;;;;27.32;36.86;97303.78;4217799;28;5880;-77
2022/07/12 15:21:42;;;;;;;;;;;;;;;27.33;36.95;97308.09;4231929;28;5707;-77
2022/07/12 15:23:47;;;;;;;;;;;;;;;27.34;37.03;97309.72;4226994;27;5765;-77
2022/07/12 15:25:50;;;;;;;;;;;;;;;27.37;36.54;97303.69;4233449;28;5747;-77
2022/07/12 15:27:55;;;;;;;;;;;;;;;27.37;36.75;97304.50;4222979;28;5850;-77
2022/07/12 15:29:59;;;;;;;;;;;;;;;27.41;36.30;97300.13;4228543;27;5877;-77
2022/07/12 15:32:03;;;;;;;;;;;;;;;27.39;36.70;97302.31;4226877;27;5758;-77
2022/07/12 15:34:06;;;;;;;;;;;;;;;27.58;35.68;97305.09;4225150;28;5777;-77
2022/07/12 15:36:09;;;;;;;;;;;;;;;27.80;35.28;97301.84;4227975;27;6365;-78
2022/07/12 15:38:12;;;;;;;;;;;;;;;27.92;34.37;97293.28;4227365;28;5653;-77
2022/07/12 15:40:16;;;;;;;;;;;;;;;28.02;34.15;97293.16;4218411;27;5785;-78
2022/07/12 15:42:19;;;;;;;;;;;;;;;28.04;33.69;97302.63;4233260;27;5780;-78
2022/07/12 15:44:22;;;;;;;;;;;;;;;28.18;33.23;97302.69;4233111;27;5756;-78
2022/07/12 15:46:26;;;;;;;;;;;;;;;28.15;33.07;97297.84;4233654;27;5772;-78
2022/07/12 15:48:29;;;;;;;;;;;;;;;28.04;32.80;97299.91;4221716;27;5876;-78
2022/07/12 15:50:32;;;;;;;;;;;;;;;27.99;33.10;97305.41;4223024;28;5686;-78
2022/07/12 15:54:56;;;;;;;;;;;;;;;28.07;32.41;97293.06;4222337;28;5740;-78
2022/07/12 15:57:01;;;;;;;;;;;;;;;28.15;31.96;97303.28;4225706;27;5753;-78
2022/07/12 15:59:07;;;;;;;;;;;;;;;28.28;31.66;97296.31;4224036;27;5770;-77
2022/07/12 16:01:10;;;;;;;;;;;;;;;28.26;31.63;97293.88;4223233;27;5773;-75
2022/07/12 16:03:13;;;;;;;;;;;;;;;28.22;31.17;97287.41;4227894;27;5801;-75
2022/07/12 16:05:17;;;;;;;;;;;;;;;28.32;30.83;97297.38;4224924;28;5706;-75
2022/07/12 16:07:20;;;;;;;;;;;;;;;28.56;30.44;97303.50;4219548;28;5770;-76
2022/07/12 16:09:23;;;;;;;;;;;;;;;28.74;29.82;97296.41;4221706;27;5752;-75
2022/07/12 16:11:26;;;;;;;;;;;;;;;28.79;29.64;97293.59;4223772;27;5765;-76
2022/07/12 16:13:32;;;;;;;;;;;;;;;28.65;29.63;97301.75;4223326;27;5984;-76
2022/07/12 16:15:36;;;;;;;;;;;;;;;28.60;29.79;97304.53;4226058;27;6109;-75
2022/07/12 16:17:40;;;;;;;;;;;;;;;28.56;29.91;97310.88;4225116;27;5722;-76
2022/07/12 16:19:44;;;;;;;;;;;;;;;28.66;29.11;97303.34;4223649;27;6003;-75
2022/07/12 16:21:47;;;;;;;;;;;;;;;28.71;29.14;97299.72;4235810;27;5898;-75
2022/07/12 16:23:50;;;;;;;;;;;;;;;28.82;28.89;97301.16;4226949;27;5730;-75
2022/07/12 16:25:53;;;;;;;;;;;;;;;28.91;28.69;97293.16;4235632;27;5745;-76
2022/07/12 16:28:06;;;;;;;;;;;;;;;28.99;28.46;97301.44;4222627;27;5743;-75
2022/07/12 16:30:11;;;;;;;;;;;;;;;28.93;28.49;97297.19;4234773;27;6439;-75
2022/07/12 16:32:15;;;;;;;;;;;;;;;28.92;28.50;97303.75;4223996;27;5801;-75
2022/07/12 16:34:18;;;;;;;;;;;;;;;28.97;27.85;97298.19;4224481;27;5813;-76
2022/07/12 16:36:21;;;;;;;;;;;;;;;29.04;27.85;97299.75;4227986;27;5769;-76
2022/07/12 16:38:24;;;;;;;;;;;;;;;29.05;27.53;97298.63;4223627;27;5830;-75
2022/07/12 16:40:27;;;;;;;;;;;;;;;28.94;27.64;97298.81;4227021;27;5836;-76
2022/07/12 16:42:33;;;;;;;;;;;;;;;28.96;27.48;97301.22;4228890;27;5720;-76